sensor_id;sensor_type;location;lat;lon;timestamp;temperature;humidity
21259;DHT22;10787;53.364;-1.480;2022-09-28T00:02:11;8.30;99.90
21259;DHT22;10787;53.364;-1.480;2022-09-28T00:04:37;8.20;99.90
21259;DHT22;10787;53.364;-1.480;2022-09-28T00:07:03;8.20;99.90
21259;DHT22;10787;53.364;-1.480;2022-09-28T00:09:32;8.20;99.90
21259;DHT22;10787;53.364;-1.480;2022-09-28T00:11:58;8.20;99.90
21259;DHT22;10787;53.364;-1.480;2022-09-28T00:14:24;8.20;99.90
21259;DHT22;10787;53.364;-1.480;2022-09-28T00:16:51;8.10;99.90
21259;DHT22;10787;53.364;-1.480;2022-09-28T00:19:17;8.10;99.90
21259;DHT22;10787;53.364;-1.480;2022-09-28T00:21:42;8.10;99.90
21259;DHT22;10787;53.364;-1.480;2022-09-28T00:24:13;8.00;99.90
21259;DHT22;10787;53.364;-1.480;2022-09-28T00:31:41;8.00;99.90
21259;DHT22;10787;53.364;-1.480;2022-09-28T00:34:07;7.90;99.90
21259;DHT22;10787;53.364;-1.480;2022-09-28T00:36:33;7.90;99.90
21259;DHT22;10787;53.364;-1.480;2022-09-28T00:39:06;7.90;99.90
21259;DHT22;10787;53.364;-1.480;2022-09-28T00:41:34;7.90;99.90
21259;DHT22;10787;53.364;-1.480;2022-09-28T00:50:07;7.70;99.90
21259;DHT22;10787;53.364;-1.480;2022-09-28T00:52:55;7.80;99.90
21259;DHT22;10787;53.364;-1.480;2022-09-28T00:55:29;7.80;99.90
21259;DHT22;10787;53.364;-1.480;2022-09-28T00:57:57;7.90;99.90
21259;DHT22;10787;53.364;-1.480;2022-09-28T01:00:24;7.90;99.90
21259;DHT22;10787;53.364;-1.480;2022-09-28T01:02:50;7.90;99.90
21259;DHT22;10787;53.364;-1.480;2022-09-28T01:05:17;7.80;99.90
21259;DHT22;10787;53.364;-1.480;2022-09-28T01:07:43;7.80;99.90
21259;DHT22;10787;53.364;-1.480;2022-09-28T01:10:11;7.80;99.90
21259;DHT22;10787;53.364;-1.480;2022-09-28T01:12:37;7.80;99.90
21259;DHT22;10787;53.364;-1.480;2022-09-28T01:15:05;7.80;99.90
21259;DHT22;10787;53.364;-1.480;2022-09-28T01:26:10;7.70;99.90
21259;DHT22;10787;53.364;-1.480;2022-09-28T01:28:36;7.60;99.90
21259;DHT22;10787;53.364;-1.480;2022-09-28T01:31:13;7.50;99.90
21259;DHT22;10787;53.364;-1.480;2022-09-28T01:33:45;7.40;99.90
21259;DHT22;10787;53.364;-1.480;2022-09-28T01:36:54;7.30;99.90
21259;DHT22;10787;53.364;-1.480;2022-09-28T01:39:27;7.30;99.90
21259;DHT22;10787;53.364;-1.480;2022-09-28T01:41:57;7.20;99.90
21259;DHT22;10787;53.364;-1.480;2022-09-28T01:44:27;7.20;99.90
21259;DHT22;10787;53.364;-1.480;2022-09-28T01:46:54;7.20;99.90
21259;DHT22;10787;53.364;-1.480;2022-09-28T01:49:34;7.20;99.90
21259;DHT22;10787;53.364;-1.480;2022-09-28T01:57:14;7.10;99.90
21259;DHT22;10787;53.364;-1.480;2022-09-28T01:59:48;7.10;99.90
21259;DHT22;10787;53.364;-1.480;2022-09-28T02:02:21;7.00;99.90
21259;DHT22;10787;53.364;-1.480;2022-09-28T02:04:54;7.00;99.90
21259;DHT22;10787;53.364;-1.480;2022-09-28T02:07:36;7.00;99.90
21259;DHT22;10787;53.364;-1.480;2022-09-28T02:10:11;6.90;99.90
21259;DHT22;10787;53.364;-1.480;2022-09-28T02:13:02;6.90;99.90
21259;DHT22;10787;53.364;-1.480;2022-09-28T02:15:31;6.90;99.90
21259;DHT22;10787;53.364;-1.480;2022-09-28T02:17:58;6.80;99.90
21259;DHT22;10787;53.364;-1.480;2022-09-28T02:20:25;6.80;99.90
21259;DHT22;10787;53.364;-1.480;2022-09-28T02:22:56;6.80;99.90
21259;DHT22;10787;53.364;-1.480;2022-09-28T02:25:43;6.70;99.90
21259;DHT22;10787;53.364;-1.480;2022-09-28T02:28:11;6.70;99.90
21259;DHT22;10787;53.364;-1.480;2022-09-28T02:30:39;6.70;99.90
21259;DHT22;10787;53.364;-1.480;2022-09-28T02:33:35;6.70;99.90
21259;DHT22;10787;53.364;-1.480;2022-09-28T02:36:01;6.70;99.90
21259;DHT22;10787;53.364;-1.480;2022-09-28T02:38:29;6.80;99.90
21259;DHT22;10787;53.364;-1.480;2022-09-28T02:46:52;6.70;99.90
21259;DHT22;10787;53.364;-1.480;2022-09-28T03:06:53;6.60;99.90
21259;DHT22;10787;53.364;-1.480;2022-09-28T03:09:19;6.70;99.90
21259;DHT22;10787;53.364;-1.480;2022-09-28T03:11:56;6.60;99.90
21259;DHT22;10787;53.364;-1.480;2022-09-28T03:14:23;6.60;99.90
21259;DHT22;10787;53.364;-1.480;2022-09-28T03:16:49;6.70;99.90
21259;DHT22;10787;53.364;-1.480;2022-09-28T03:19:17;6.70;99.90
21259;DHT22;10787;53.364;-1.480;2022-09-28T03:21:45;6.70;99.90
21259;DHT22;10787;53.364;-1.480;2022-09-28T03:24:10;6.70;99.90
21259;DHT22;10787;53.364;-1.480;2022-09-28T03:26:39;6.70;99.90
21259;DHT22;10787;53.364;-1.480;2022-09-28T03:29:05;6.70;99.90
21259;DHT22;10787;53.364;-1.480;2022-09-28T03:31:31;6.70;99.90
21259;DHT22;10787;53.364;-1.480;2022-09-28T03:33:57;6.70;99.90
21259;DHT22;10787;53.364;-1.480;2022-09-28T03:36:23;6.70;99.90
21259;DHT22;10787;53.364;-1.480;2022-09-28T03:38:51;6.60;99.90
21259;DHT22;10787;53.364;-1.480;2022-09-28T03:41:20;6.60;99.90
21259;DHT22;10787;53.364;-1.480;2022-09-28T03:43:46;6.60;99.90
21259;DHT22;10787;53.364;-1.480;2022-09-28T03:46:12;6.60;99.90
21259;DHT22;10787;53.364;-1.480;2022-09-28T03:48:39;6.60;99.90
21259;DHT22;10787;53.364;-1.480;2022-09-28T03:51:06;6.50;99.90
21259;DHT22;10787;53.364;-1.480;2022-09-28T03:53:34;6.50;99.90
21259;DHT22;10787;53.364;-1.480;2022-09-28T03:56:06;6.40;99.90
21259;DHT22;10787;53.364;-1.480;2022-09-28T03:58:32;6.40;99.90
21259;DHT22;10787;53.364;-1.480;2022-09-28T04:01:03;6.40;99.90
21259;DHT22;10787;53.364;-1.480;2022-09-28T04:03:30;6.30;99.90
21259;DHT22;10787;53.364;-1.480;2022-09-28T04:05:56;6.30;99.90
21259;DHT22;10787;53.364;-1.480;2022-09-28T04:08:22;6.20;99.90
21259;DHT22;10787;53.364;-1.480;2022-09-28T04:10:48;6.30;99.90
21259;DHT22;10787;53.364;-1.480;2022-09-28T04:13:15;6.30;99.90
21259;DHT22;10787;53.364;-1.480;2022-09-28T04:15:42;6.30;99.90
21259;DHT22;10787;53.364;-1.480;2022-09-28T04:18:11;6.30;99.90
21259;DHT22;10787;53.364;-1.480;2022-09-28T04:20:38;6.30;99.90
21259;DHT22;10787;53.364;-1.480;2022-09-28T04:23:06;6.20;99.90
21259;DHT22;10787;53.364;-1.480;2022-09-28T04:25:33;6.30;99.90
21259;DHT22;10787;53.364;-1.480;2022-09-28T04:27:59;6.30;99.90
21259;DHT22;10787;53.364;-1.480;2022-09-28T04:30:45;6.40;99.90
21259;DHT22;10787;53.364;-1.480;2022-09-28T04:33:11;6.40;99.90
21259;DHT22;10787;53.364;-1.480;2022-09-28T04:35:38;6.50;99.90
21259;DHT22;10787;53.364;-1.480;2022-09-28T04:38:03;6.50;99.90
21259;DHT22;10787;53.364;-1.480;2022-09-28T04:40:29;6.60;99.90
21259;DHT22;10787;53.364;-1.480;2022-09-28T04:42:56;6.60;99.90
21259;DHT22;10787;53.364;-1.480;2022-09-28T04:45:22;6.70;99.90
21259;DHT22;10787;53.364;-1.480;2022-09-28T04:47:51;6.80;99.90
21259;DHT22;10787;53.364;-1.480;2022-09-28T04:50:16;6.80;99.90
21259;DHT22;10787;53.364;-1.480;2022-09-28T04:52:42;6.80;99.90
21259;DHT22;10787;53.364;-1.480;2022-09-28T04:55:11;6.80;99.90
21259;DHT22;10787;53.364;-1.480;2022-09-28T04:57:37;6.90;99.90
21259;DHT22;10787;53.364;-1.480;2022-09-28T05:00:04;6.90;99.90
21259;DHT22;10787;53.364;-1.480;2022-09-28T05:02:31;6.90;99.90
21259;DHT22;10787;53.364;-1.480;2022-09-28T05:04:57;6.90;99.90
21259;DHT22;10787;53.364;-1.480;2022-09-28T05:07:27;7.00;99.90
21259;DHT22;10787;53.364;-1.480;2022-09-28T05:09:53;7.10;99.90
21259;DHT22;10787;53.364;-1.480;2022-09-28T05:12:20;7.10;99.90
21259;DHT22;10787;53.364;-1.480;2022-09-28T05:14:46;7.20;99.90
21259;DHT22;10787;53.364;-1.480;2022-09-28T05:17:12;7.20;99.90
21259;DHT22;10787;53.364;-1.480;2022-09-28T05:19:38;7.20;99.90
21259;DHT22;10787;53.364;-1.480;2022-09-28T05:22:05;7.20;99.90
21259;DHT22;10787;53.364;-1.480;2022-09-28T05:24:35;7.30;99.90
21259;DHT22;10787;53.364;-1.480;2022-09-28T05:27:01;7.20;99.90
21259;DHT22;10787;53.364;-1.480;2022-09-28T05:29:27;7.30;99.90
21259;DHT22;10787;53.364;-1.480;2022-09-28T05:31:53;7.30;99.90
21259;DHT22;10787;53.364;-1.480;2022-09-28T05:34:18;7.30;99.90
21259;DHT22;10787;53.364;-1.480;2022-09-28T05:36:44;7.30;99.90
21259;DHT22;10787;53.364;-1.480;2022-09-28T05:39:12;7.30;99.90
21259;DHT22;10787;53.364;-1.480;2022-09-28T05:41:38;7.20;99.90
21259;DHT22;10787;53.364;-1.480;2022-09-28T05:44:04;7.20;99.90
21259;DHT22;10787;53.364;-1.480;2022-09-28T05:46:30;7.20;99.90
21259;DHT22;10787;53.364;-1.480;2022-09-28T05:48:55;7.30;99.90
21259;DHT22;10787;53.364;-1.480;2022-09-28T05:51:21;7.30;99.90
21259;DHT22;10787;53.364;-1.480;2022-09-28T05:53:49;7.30;99.90
21259;DHT22;10787;53.364;-1.480;2022-09-28T05:56:15;7.30;99.90
21259;DHT22;10787;53.364;-1.480;2022-09-28T05:58:40;7.30;99.90
21259;DHT22;10787;53.364;-1.480;2022-09-28T06:01:06;7.20;99.90
21259;DHT22;10787;53.364;-1.480;2022-09-28T06:03:32;7.40;99.90
21259;DHT22;10787;53.364;-1.480;2022-09-28T06:06:02;7.70;99.90
21259;DHT22;10787;53.364;-1.480;2022-09-28T06:08:30;8.00;99.90
21259;DHT22;10787;53.364;-1.480;2022-09-28T06:10:59;8.30;99.90
21259;DHT22;10787;53.364;-1.480;2022-09-28T06:13:26;8.40;99.90
21259;DHT22;10787;53.364;-1.480;2022-09-28T06:15:52;8.60;99.90
21259;DHT22;10787;53.364;-1.480;2022-09-28T06:18:19;8.70;99.90
21259;DHT22;10787;53.364;-1.480;2022-09-28T06:20:45;8.70;99.90
21259;DHT22;10787;53.364;-1.480;2022-09-28T06:23:11;8.80;99.90
21259;DHT22;10787;53.364;-1.480;2022-09-28T06:25:38;8.80;99.90
21259;DHT22;10787;53.364;-1.480;2022-09-28T06:28:06;8.90;99.90
21259;DHT22;10787;53.364;-1.480;2022-09-28T06:30:34;8.90;99.90
21259;DHT22;10787;53.364;-1.480;2022-09-28T06:33:03;8.90;99.90
21259;DHT22;10787;53.364;-1.480;2022-09-28T06:35:30;9.00;99.90
21259;DHT22;10787;53.364;-1.480;2022-09-28T06:37:58;9.00;99.90
21259;DHT22;10787;53.364;-1.480;2022-09-28T06:40:25;9.10;99.90
21259;DHT22;10787;53.364;-1.480;2022-09-28T06:42:59;9.10;99.90
21259;DHT22;10787;53.364;-1.480;2022-09-28T06:45:26;9.20;99.90
21259;DHT22;10787;53.364;-1.480;2022-09-28T06:47:54;9.20;99.90
21259;DHT22;10787;53.364;-1.480;2022-09-28T06:50:22;9.20;99.90
21259;DHT22;10787;53.364;-1.480;2022-09-28T06:52:52;9.20;99.90
21259;DHT22;10787;53.364;-1.480;2022-09-28T06:55:19;9.20;99.90
21259;DHT22;10787;53.364;-1.480;2022-09-28T06:57:46;9.20;99.90
21259;DHT22;10787;53.364;-1.480;2022-09-28T07:00:13;9.20;99.90
21259;DHT22;10787;53.364;-1.480;2022-09-28T07:02:39;9.20;99.90
21259;DHT22;10787;53.364;-1.480;2022-09-28T07:05:05;9.30;99.90
21259;DHT22;10787;53.364;-1.480;2022-09-28T07:07:32;9.30;99.90
21259;DHT22;10787;53.364;-1.480;2022-09-28T07:09:58;9.40;99.90
21259;DHT22;10787;53.364;-1.480;2022-09-28T07:12:24;9.40;99.90
21259;DHT22;10787;53.364;-1.480;2022-09-28T07:14:50;9.50;99.90
21259;DHT22;10787;53.364;-1.480;2022-09-28T07:17:22;9.50;99.90
21259;DHT22;10787;53.364;-1.480;2022-09-28T07:19:48;9.60;99.90
21259;DHT22;10787;53.364;-1.480;2022-09-28T07:22:24;9.70;99.90
21259;DHT22;10787;53.364;-1.480;2022-09-28T07:24:49;9.80;99.90
21259;DHT22;10787;53.364;-1.480;2022-09-28T07:27:15;9.80;99.90
21259;DHT22;10787;53.364;-1.480;2022-09-28T07:29:41;9.90;99.90
21259;DHT22;10787;53.364;-1.480;2022-09-28T07:32:07;9.90;99.90
21259;DHT22;10787;53.364;-1.480;2022-09-28T07:34:33;10.00;99.90
21259;DHT22;10787;53.364;-1.480;2022-09-28T07:37:09;10.00;99.90
21259;DHT22;10787;53.364;-1.480;2022-09-28T07:39:37;10.10;99.90
21259;DHT22;10787;53.364;-1.480;2022-09-28T07:42:21;10.00;99.90
21259;DHT22;10787;53.364;-1.480;2022-09-28T07:44:47;10.00;99.90
21259;DHT22;10787;53.364;-1.480;2022-09-28T07:47:13;10.00;99.90
21259;DHT22;10787;53.364;-1.480;2022-09-28T07:49:39;10.00;99.90
21259;DHT22;10787;53.364;-1.480;2022-09-28T07:52:04;10.00;99.90
21259;DHT22;10787;53.364;-1.480;2022-09-28T07:54:30;9.90;99.90
21259;DHT22;10787;53.364;-1.480;2022-09-28T07:56:56;9.90;99.90
21259;DHT22;10787;53.364;-1.480;2022-09-28T07:59:22;9.90;99.90
21259;DHT22;10787;53.364;-1.480;2022-09-28T08:01:50;9.90;99.90
21259;DHT22;10787;53.364;-1.480;2022-09-28T08:04:16;10.00;99.90
21259;DHT22;10787;53.364;-1.480;2022-09-28T08:06:42;10.00;99.90
21259;DHT22;10787;53.364;-1.480;2022-09-28T08:09:28;10.00;99.90
21259;DHT22;10787;53.364;-1.480;2022-09-28T08:11:54;10.00;99.90
21259;DHT22;10787;53.364;-1.480;2022-09-28T08:14:20;10.10;99.90
21259;DHT22;10787;53.364;-1.480;2022-09-28T08:16:45;10.10;99.90
21259;DHT22;10787;53.364;-1.480;2022-09-28T08:19:11;10.10;99.90
21259;DHT22;10787;53.364;-1.480;2022-09-28T08:21:37;10.20;99.90
21259;DHT22;10787;53.364;-1.480;2022-09-28T08:24:14;10.20;99.90
21259;DHT22;10787;53.364;-1.480;2022-09-28T08:26:40;10.30;99.90
21259;DHT22;10787;53.364;-1.480;2022-09-28T08:29:07;10.40;99.90
21259;DHT22;10787;53.364;-1.480;2022-09-28T08:31:34;10.40;99.90
21259;DHT22;10787;53.364;-1.480;2022-09-28T08:34:01;10.50;99.90
21259;DHT22;10787;53.364;-1.480;2022-09-28T08:36:27;10.50;99.90
21259;DHT22;10787;53.364;-1.480;2022-09-28T08:38:54;10.60;99.90
21259;DHT22;10787;53.364;-1.480;2022-09-28T08:44:24;10.70;99.90
21259;DHT22;10787;53.364;-1.480;2022-09-28T08:47:02;10.70;99.90
21259;DHT22;10787;53.364;-1.480;2022-09-28T08:49:35;10.80;99.90
21259;DHT22;10787;53.364;-1.480;2022-09-28T08:52:22;10.90;99.90
21259;DHT22;10787;53.364;-1.480;2022-09-28T08:54:52;10.90;99.90
21259;DHT22;10787;53.364;-1.480;2022-09-28T08:57:28;11.00;99.90
21259;DHT22;10787;53.364;-1.480;2022-09-28T08:59:57;11.10;99.90
21259;DHT22;10787;53.364;-1.480;2022-09-28T09:02:32;11.20;99.90
21259;DHT22;10787;53.364;-1.480;2022-09-28T09:05:10;11.30;99.90
21259;DHT22;10787;53.364;-1.480;2022-09-28T09:08:01;11.40;99.90
21259;DHT22;10787;53.364;-1.480;2022-09-28T09:10:51;11.50;99.90
21259;DHT22;10787;53.364;-1.480;2022-09-28T09:16:27;11.90;99.90
21259;DHT22;10787;53.364;-1.480;2022-09-28T09:19:01;11.90;99.90
21259;DHT22;10787;53.364;-1.480;2022-09-28T09:26:39;12.20;99.90
21259;DHT22;10787;53.364;-1.480;2022-09-28T09:37:47;12.50;99.90
21259;DHT22;10787;53.364;-1.480;2022-09-28T09:43:01;12.50;99.90
21259;DHT22;10787;53.364;-1.480;2022-09-28T09:45:42;12.60;99.90
21259;DHT22;10787;53.364;-1.480;2022-09-28T09:48:15;12.70;99.90
21259;DHT22;10787;53.364;-1.480;2022-09-28T09:50:49;12.80;99.90
21259;DHT22;10787;53.364;-1.480;2022-09-28T09:53:32;12.70;99.90
21259;DHT22;10787;53.364;-1.480;2022-09-28T09:56:33;12.70;99.90
21259;DHT22;10787;53.364;-1.480;2022-09-28T09:59:12;12.80;99.90
21259;DHT22;10787;53.364;-1.480;2022-09-28T10:01:40;12.90;99.90
21259;DHT22;10787;53.364;-1.480;2022-09-28T10:04:28;13.00;99.90
21259;DHT22;10787;53.364;-1.480;2022-09-28T10:07:03;13.00;99.90
21259;DHT22;10787;53.364;-1.480;2022-09-28T10:09:41;13.00;99.90
21259;DHT22;10787;53.364;-1.480;2022-09-28T10:12:08;13.10;99.90
21259;DHT22;10787;53.364;-1.480;2022-09-28T10:14:36;13.20;99.90
21259;DHT22;10787;53.364;-1.480;2022-09-28T10:17:03;13.20;99.90
21259;DHT22;10787;53.364;-1.480;2022-09-28T10:19:33;13.30;99.90
21259;DHT22;10787;53.364;-1.480;2022-09-28T10:22:03;13.40;99.90
21259;DHT22;10787;53.364;-1.480;2022-09-28T10:24:40;13.50;99.90
21259;DHT22;10787;53.364;-1.480;2022-09-28T10:29:50;13.90;99.90
21259;DHT22;10787;53.364;-1.480;2022-09-28T10:32:34;14.00;99.90
21259;DHT22;10787;53.364;-1.480;2022-09-28T10:43:19;14.20;99.90
21259;DHT22;10787;53.364;-1.480;2022-09-28T10:45:47;14.20;99.90
21259;DHT22;10787;53.364;-1.480;2022-09-28T10:48:22;14.20;99.90
21259;DHT22;10787;53.364;-1.480;2022-09-28T10:51:05;14.10;99.90
21259;DHT22;10787;53.364;-1.480;2022-09-28T10:53:33;14.30;99.90
21259;DHT22;10787;53.364;-1.480;2022-09-28T10:58:40;14.60;99.90
21259;DHT22;10787;53.364;-1.480;2022-09-28T11:01:10;14.90;99.90
21259;DHT22;10787;53.364;-1.480;2022-09-28T11:03:57;15.20;99.90
21259;DHT22;10787;53.364;-1.480;2022-09-28T11:06:34;15.30;99.90
21259;DHT22;10787;53.364;-1.480;2022-09-28T11:09:03;15.40;99.90
21259;DHT22;10787;53.364;-1.480;2022-09-28T11:11:30;15.60;99.90
21259;DHT22;10787;53.364;-1.480;2022-09-28T11:14:04;15.60;99.90
21259;DHT22;10787;53.364;-1.480;2022-09-28T11:16:44;15.60;99.90
21259;DHT22;10787;53.364;-1.480;2022-09-28T11:21:45;15.80;99.90
21259;DHT22;10787;53.364;-1.480;2022-09-28T11:26:47;15.90;99.90
21259;DHT22;10787;53.364;-1.480;2022-09-28T11:29:28;15.80;99.90
21259;DHT22;10787;53.364;-1.480;2022-09-28T11:32:00;15.40;99.90
21259;DHT22;10787;53.364;-1.480;2022-09-28T11:34:34;15.20;99.90
21259;DHT22;10787;53.364;-1.480;2022-09-28T11:42:38;17.30;99.90
21259;DHT22;10787;53.364;-1.480;2022-09-28T11:48:09;18.30;99.90
21259;DHT22;10787;53.364;-1.480;2022-09-28T11:53:38;20.00;99.90
21259;DHT22;10787;53.364;-1.480;2022-09-28T11:56:22;20.80;99.90
21259;DHT22;10787;53.364;-1.480;2022-09-28T11:59:37;20.50;99.90
21259;DHT22;10787;53.364;-1.480;2022-09-28T12:02:18;19.80;99.90
21259;DHT22;10787;53.364;-1.480;2022-09-28T12:07:24;18.20;99.90
21259;DHT22;10787;53.364;-1.480;2022-09-28T12:10:02;17.90;99.90
21259;DHT22;10787;53.364;-1.480;2022-09-28T12:12:50;18.50;99.90
21259;DHT22;10787;53.364;-1.480;2022-09-28T12:15:25;19.10;99.90
21259;DHT22;10787;53.364;-1.480;2022-09-28T12:18:01;20.10;99.90
21259;DHT22;10787;53.364;-1.480;2022-09-28T12:20:39;20.70;99.90
21259;DHT22;10787;53.364;-1.480;2022-09-28T12:25:46;20.10;99.90
21259;DHT22;10787;53.364;-1.480;2022-09-28T12:28:38;18.90;99.90
21259;DHT22;10787;53.364;-1.480;2022-09-28T12:31:27;18.30;99.90
21259;DHT22;10787;53.364;-1.480;2022-09-28T12:33:56;17.50;99.90
21259;DHT22;10787;53.364;-1.480;2022-09-28T12:36:40;17.20;99.90
21259;DHT22;10787;53.364;-1.480;2022-09-28T12:42:16;17.80;99.90
21259;DHT22;10787;53.364;-1.480;2022-09-28T12:45:12;20.00;99.90
21259;DHT22;10787;53.364;-1.480;2022-09-28T12:50:52;23.10;99.90
21259;DHT22;10787;53.364;-1.480;2022-09-28T12:53:55;24.70;99.90
21259;DHT22;10787;53.364;-1.480;2022-09-28T12:59:27;27.00;99.90
21259;DHT22;10787;53.364;-1.480;2022-09-28T13:07:48;27.30;99.90
21259;DHT22;10787;53.364;-1.480;2022-09-28T13:10:43;27.20;99.90
21259;DHT22;10787;53.364;-1.480;2022-09-28T13:16:04;26.60;99.90
21259;DHT22;10787;53.364;-1.480;2022-09-28T13:24:19;27.40;99.90
21259;DHT22;10787;53.364;-1.480;2022-09-28T13:26:49;25.60;99.90
21259;DHT22;10787;53.364;-1.480;2022-09-28T13:29:18;24.60;99.90
21259;DHT22;10787;53.364;-1.480;2022-09-28T13:31:49;25.30;99.90
21259;DHT22;10787;53.364;-1.480;2022-09-28T13:34:23;27.00;99.90
21259;DHT22;10787;53.364;-1.480;2022-09-28T13:39:51;27.60;99.90
21259;DHT22;10787;53.364;-1.480;2022-09-28T13:50:30;22.00;99.90
21259;DHT22;10787;53.364;-1.480;2022-09-28T14:01:28;19.00;99.90
21259;DHT22;10787;53.364;-1.480;2022-09-28T14:04:14;20.20;99.90
21259;DHT22;10787;53.364;-1.480;2022-09-28T14:06:42;20.80;99.90
21259;DHT22;10787;53.364;-1.480;2022-09-28T14:11:52;19.90;99.90
21259;DHT22;10787;53.364;-1.480;2022-09-28T14:17:34;18.70;99.90
21259;DHT22;10787;53.364;-1.480;2022-09-28T14:20:12;18.60;99.90
21259;DHT22;10787;53.364;-1.480;2022-09-28T14:25:44;20.30;99.90
21259;DHT22;10787;53.364;-1.480;2022-09-28T14:30:55;23.60;99.90
21259;DHT22;10787;53.364;-1.480;2022-09-28T14:33:27;23.00;99.90
21259;DHT22;10787;53.364;-1.480;2022-09-28T14:35:57;21.80;99.90
21259;DHT22;10787;53.364;-1.480;2022-09-28T14:38:36;20.60;99.90
21259;DHT22;10787;53.364;-1.480;2022-09-28T14:44:05;18.80;99.90
21259;DHT22;10787;53.364;-1.480;2022-09-28T14:46:40;18.40;99.90
21259;DHT22;10787;53.364;-1.480;2022-09-28T14:51:58;17.90;99.90
21259;DHT22;10787;53.364;-1.480;2022-09-28T14:54:37;17.50;99.90
21259;DHT22;10787;53.364;-1.480;2022-09-28T14:59:42;18.10;99.90
21259;DHT22;10787;53.364;-1.480;2022-09-28T15:02:22;19.50;99.90
21259;DHT22;10787;53.364;-1.480;2022-09-28T15:05:00;19.50;99.90
21259;DHT22;10787;53.364;-1.480;2022-09-28T15:07:43;20.70;99.90
21259;DHT22;10787;53.364;-1.480;2022-09-28T15:12:49;23.80;99.90
21259;DHT22;10787;53.364;-1.480;2022-09-28T15:15:38;24.90;99.90
21259;DHT22;10787;53.364;-1.480;2022-09-28T15:21:15;26.30;99.90
21259;DHT22;10787;53.364;-1.480;2022-09-28T15:23:43;27.10;99.90
21259;DHT22;10787;53.364;-1.480;2022-09-28T15:26:25;27.60;99.90
21259;DHT22;10787;53.364;-1.480;2022-09-28T15:28:53;27.20;99.90
21259;DHT22;10787;53.364;-1.480;2022-09-28T15:31:22;27.90;99.90
21259;DHT22;10787;53.364;-1.480;2022-09-28T15:33:48;28.00;99.90
21259;DHT22;10787;53.364;-1.480;2022-09-28T15:36:40;27.50;99.90
21259;DHT22;10787;53.364;-1.480;2022-09-28T15:39:24;25.40;99.90
21259;DHT22;10787;53.364;-1.480;2022-09-28T15:41:55;25.10;99.90
21259;DHT22;10787;53.364;-1.480;2022-09-28T15:44:31;23.70;99.90
21259;DHT22;10787;53.364;-1.480;2022-09-28T15:47:26;22.90;99.90
21259;DHT22;10787;53.364;-1.480;2022-09-28T15:52:32;22.80;99.90
21259;DHT22;10787;53.364;-1.480;2022-09-28T15:55:19;23.30;99.90
21259;DHT22;10787;53.364;-1.480;2022-09-28T15:57:45;24.00;99.90
21259;DHT22;10787;53.364;-1.480;2022-09-28T16:00:38;24.70;99.90
21259;DHT22;10787;53.364;-1.480;2022-09-28T16:05:44;24.40;99.90
21259;DHT22;10787;53.364;-1.480;2022-09-28T16:08:41;24.50;99.90
21259;DHT22;10787;53.364;-1.480;2022-09-28T16:16:25;22.00;99.90
21259;DHT22;10787;53.364;-1.480;2022-09-28T16:18:52;20.90;99.90
21259;DHT22;10787;53.364;-1.480;2022-09-28T16:23:54;20.60;99.90
21259;DHT22;10787;53.364;-1.480;2022-09-28T16:26:33;20.70;99.90
21259;DHT22;10787;53.364;-1.480;2022-09-28T16:29:06;20.30;99.90
21259;DHT22;10787;53.364;-1.480;2022-09-28T16:31:40;19.50;99.90
21259;DHT22;10787;53.364;-1.480;2022-09-28T16:34:19;18.90;99.90
21259;DHT22;10787;53.364;-1.480;2022-09-28T16:36:48;18.40;99.90
21259;DHT22;10787;53.364;-1.480;2022-09-28T16:39:16;17.50;99.90
21259;DHT22;10787;53.364;-1.480;2022-09-28T16:41:52;16.90;99.90
21259;DHT22;10787;53.364;-1.480;2022-09-28T16:44:24;16.60;99.90
21259;DHT22;10787;53.364;-1.480;2022-09-28T16:46:52;16.20;99.90
21259;DHT22;10787;53.364;-1.480;2022-09-28T16:49:20;15.90;99.90
21259;DHT22;10787;53.364;-1.480;2022-09-28T16:51:48;15.80;99.90
21259;DHT22;10787;53.364;-1.480;2022-09-28T16:54:19;15.50;99.90
21259;DHT22;10787;53.364;-1.480;2022-09-28T16:57:05;15.50;99.90
21259;DHT22;10787;53.364;-1.480;2022-09-28T16:59:32;15.30;99.90
21259;DHT22;10787;53.364;-1.480;2022-09-28T17:01:58;15.10;99.90
21259;DHT22;10787;53.364;-1.480;2022-09-28T17:04:25;15.00;99.90
21259;DHT22;10787;53.364;-1.480;2022-09-28T17:07:08;14.80;99.90
21259;DHT22;10787;53.364;-1.480;2022-09-28T17:09:36;14.70;99.90
21259;DHT22;10787;53.364;-1.480;2022-09-28T17:12:11;14.60;99.90
21259;DHT22;10787;53.364;-1.480;2022-09-28T17:14:37;14.30;99.90
21259;DHT22;10787;53.364;-1.480;2022-09-28T17:17:04;14.30;99.90
21259;DHT22;10787;53.364;-1.480;2022-09-28T17:19:31;14.20;99.90
21259;DHT22;10787;53.364;-1.480;2022-09-28T17:21:58;14.10;99.90
21259;DHT22;10787;53.364;-1.480;2022-09-28T17:24:23;14.00;99.90
21259;DHT22;10787;53.364;-1.480;2022-09-28T17:26:50;14.00;99.90
21259;DHT22;10787;53.364;-1.480;2022-09-28T17:29:17;13.90;99.90
21259;DHT22;10787;53.364;-1.480;2022-09-28T17:31:44;13.90;99.90
21259;DHT22;10787;53.364;-1.480;2022-09-28T17:34:12;13.80;99.90
21259;DHT22;10787;53.364;-1.480;2022-09-28T17:36:40;13.70;99.90
21259;DHT22;10787;53.364;-1.480;2022-09-28T17:39:13;13.60;99.90
21259;DHT22;10787;53.364;-1.480;2022-09-28T17:41:39;13.40;99.90
21259;DHT22;10787;53.364;-1.480;2022-09-28T17:44:06;13.30;99.90
21259;DHT22;10787;53.364;-1.480;2022-09-28T17:46:36;13.10;99.90
21259;DHT22;10787;53.364;-1.480;2022-09-28T17:49:05;13.00;99.90
21259;DHT22;10787;53.364;-1.480;2022-09-28T17:51:34;12.90;99.90
21259;DHT22;10787;53.364;-1.480;2022-09-28T17:54:00;12.80;99.90
21259;DHT22;10787;53.364;-1.480;2022-09-28T17:56:27;12.60;99.90
21259;DHT22;10787;53.364;-1.480;2022-09-28T17:58:53;12.60;99.90
21259;DHT22;10787;53.364;-1.480;2022-09-28T18:01:20;12.70;99.90
21259;DHT22;10787;53.364;-1.480;2022-09-28T18:03:46;12.60;99.90
21259;DHT22;10787;53.364;-1.480;2022-09-28T18:06:15;12.60;99.90
21259;DHT22;10787;53.364;-1.480;2022-09-28T18:08:42;12.60;99.90
21259;DHT22;10787;53.364;-1.480;2022-09-28T18:11:09;12.50;99.90
21259;DHT22;10787;53.364;-1.480;2022-09-28T18:13:35;12.50;99.90
21259;DHT22;10787;53.364;-1.480;2022-09-28T18:16:02;12.50;99.90
21259;DHT22;10787;53.364;-1.480;2022-09-28T18:18:28;12.40;99.90
21259;DHT22;10787;53.364;-1.480;2022-09-28T18:20:54;12.50;99.90
21259;DHT22;10787;53.364;-1.480;2022-09-28T18:23:19;12.50;99.90
21259;DHT22;10787;53.364;-1.480;2022-09-28T18:25:46;12.40;99.90
21259;DHT22;10787;53.364;-1.480;2022-09-28T18:28:13;12.40;99.90
21259;DHT22;10787;53.364;-1.480;2022-09-28T18:30:40;12.50;99.90
21259;DHT22;10787;53.364;-1.480;2022-09-28T18:33:07;12.50;99.90
21259;DHT22;10787;53.364;-1.480;2022-09-28T18:35:33;12.50;99.90
21259;DHT22;10787;53.364;-1.480;2022-09-28T18:37:59;12.50;99.90
21259;DHT22;10787;53.364;-1.480;2022-09-28T18:40:25;12.40;99.90
21259;DHT22;10787;53.364;-1.480;2022-09-28T18:42:51;12.40;99.90
21259;DHT22;10787;53.364;-1.480;2022-09-28T18:45:17;12.40;99.90
21259;DHT22;10787;53.364;-1.480;2022-09-28T18:47:44;12.50;99.90
21259;DHT22;10787;53.364;-1.480;2022-09-28T18:50:11;12.40;99.90
21259;DHT22;10787;53.364;-1.480;2022-09-28T18:52:41;12.40;99.90
21259;DHT22;10787;53.364;-1.480;2022-09-28T18:55:08;12.40;99.90